CST,Max TemperatureF,Mean TemperatureF,Min TemperatureF,Max Dew PointF,MeanDew PointF,Min DewpointF,Max Humidity, Mean Humidity, Min Humidity, Max Sea Level PressureIn, Mean Sea Level PressureIn, Min Sea Level PressureIn, Max VisibilityMiles, Mean VisibilityMiles, Min VisibilityMiles, Max Wind SpeedMPH, Mean Wind SpeedMPH, Max Gust SpeedMPH,PrecipitationIn, CloudCover, Events, WindDirDegrees
2013-2-1,-2,-13,-24,-13,-22,-31,74,62,49,30.30,30.21,30.10,10,9,2,14,6,21,0.00,6,,294
2013-2-2,8,-8,-23,-2,-13,-30,78,63,46,30.23,30.12,29.97,10,10,9,6,2,,0.00,4,Snow,242
2013-2-3,6,-5,-18,-2,-9,-23,79,68,55,30.10,30.00,29.88,10,8,1,18,12,25,0.00,5,Snow,313
2013-2-4,8,-8,-25,3,-10,-32,92,70,51,30.14,29.91,29.60,10,7,0,8,2,,0.06,4,Snow,168
2013-2-5,12,8,3,7,2,-4,85,75,54,30.10,29.78,29.56,10,6,1,14,6,20,0.03,6,Snow,298
2013-2-6,19,10,1,14,9,-4,81,76,67,30.16,30.07,29.96,10,5,1,8,4,,0.08,8,Snow,104
2013-2-7,24,16,9,13,11,4,84,75,62,30.35,30.24,30.07,10,9,2,8,4,,0.00,8,Snow,34
2013-2-8,24,12,1,13,7,-2,85,77,62,30.43,30.35,30.24,10,9,5,10,3,,0.00,5,Snow,135
2013-2-9,27,20,14,23,18,9,86,80,71,30.24,30.05,29.93,10,8,4,10,6,,0.00,8,,156
2013-2-10,28,26,24,24,22,21,89,82,74,29.98,29.62,29.41,10,3,0,16,10,23,0.18,8,Fog-Snow,61
2013-2-11,27,22,17,22,15,12,81,76,68,29.96,29.68,29.40,10,6,2,23,15,31,0.00,8,Snow,323
2013-2-12,30,14,-2,20,11,-6,85,76,59,29.96,29.84,29.72,10,10,10,9,4,16,0.00,5,,226
2013-2-13,30,19,8,22,16,4,88,80,66,29.71,29.67,29.58,10,10,8,8,3,,0.00,5,,330
2013-2-14,26,16,7,20,8,-3,89,69,42,30.17,29.91,29.68,10,9,2,20,10,25,0.00,6,Snow,337
2013-2-15,10,2,-6,0,-3,-11,85,70,59,30.31,30.25,30.15,10,9,2,16,10,21,0.00,4,Snow,312
2013-2-16,17,0,-16,-2,-9,-21,83,68,41,30.25,30.21,30.16,10,10,5,5,1,,0.00,2,Snow,125
2013-2-17,28,6,-17,13,1,-24,79,65,51,30.16,29.91,29.67,10,10,7,15,5,22,0.00,7,,155
2013-2-18,26,16,3,20,12,-4,81,74,67,29.85,29.62,29.47,10,5,1,25,11,34,0.00,8,Snow,326
2013-2-19,5,-1,-7,-5,-12,-15,72,66,55,30.45,30.06,29.80,10,5,1,26,22,34,0.00,4,Snow,339
2013-2-20,16,4,-9,-10,-14,-18,71,54,27,30.57,30.52,30.45,10,10,10,10,7,18,0.00,0,,9
2013-2-21,24,4,-16,12,-2,-23,85,67,46,30.57,30.45,30.26,10,10,10,13,3,,0.00,2,,85
2013-2-22,30,24,19,22,19,15,88,81,66,30.23,29.97,29.85,10,6,1,9,6,,0.01,8,Snow,28
2013-2-23,32,24,16,20,17,12,88,75,60,29.96,29.86,29.78,10,10,9,9,2,,0.00,5,Snow,309
2013-2-24,36,20,3,21,9,-4,96,76,50,30.10,30.01,29.90,10,7,0,9,1,,0.00,0,Fog,293
2013-2-25,35,18,1,21,11,-2,92,73,57,30.12,30.08,30.02,10,10,6,8,1,,0.00,2,,244
2013-2-26,43,22,0,20,9,-5,84,68,35,30.13,30.09,30.04,10,10,6,6,1,,0.00,0,,48
2013-2-27,37,24,10,21,16,6,88,69,50,30.13,30.05,30.00,10,10,10,14,7,23,0.00,3,,360
2013-2-28,30,26,19,17,12,3,72,58,43,30.34,30.25,30.14,10,10,9,13,10,20,0.00,4,Snow,34